sensor_id;sensor_type;location;lat;lon;timestamp;P1;durP1;ratioP1;P2;durP2;ratioP2
77531;SDS011;70100;44.486;0.266;2023-08-30T00:05:02;4.77;;;2.83;;
77531;SDS011;70100;44.486;0.266;2023-08-30T00:10:33;6.93;;;3.23;;
77531;SDS011;70100;44.486;0.266;2023-08-30T00:16:05;9.80;;;3.77;;
77531;SDS011;70100;44.486;0.266;2023-08-30T00:21:38;6.57;;;3.27;;
77531;SDS011;70100;44.486;0.266;2023-08-30T00:27:10;7.30;;;3.27;;
77531;SDS011;70100;44.486;0.266;2023-08-30T00:32:42;-1.00;;;-1.00;;
77531;SDS011;70100;44.486;0.266;2023-08-30T00:43:48;-1.00;;;-1.00;;
77531;SDS011;70100;44.486;0.266;2023-08-30T00:49:20;5.10;;;2.50;;
77531;SDS011;70100;44.486;0.266;2023-08-30T00:54:52;3.93;;;2.80;;
77531;SDS011;70100;44.486;0.266;2023-08-30T01:00:24;10.93;;;3.80;;
77531;SDS011;70100;44.486;0.266;2023-08-30T01:05:56;7.80;;;3.33;;
77531;SDS011;70100;44.486;0.266;2023-08-30T01:11:31;5.53;;;3.13;;
77531;SDS011;70100;44.486;0.266;2023-08-30T01:17:03;9.00;;;2.90;;
77531;SDS011;70100;44.486;0.266;2023-08-30T01:22:38;9.60;;;3.47;;
77531;SDS011;70100;44.486;0.266;2023-08-30T01:28:07;9.20;;;3.83;;
77531;SDS011;70100;44.486;0.266;2023-08-30T01:33:40;-1.00;;;-1.00;;
77531;SDS011;70100;44.486;0.266;2023-08-30T01:39:13;10.53;;;4.70;;
77531;SDS011;70100;44.486;0.266;2023-08-30T01:44:45;7.13;;;3.67;;
77531;SDS011;70100;44.486;0.266;2023-08-30T01:50:18;6.93;;;3.27;;
77531;SDS011;70100;44.486;0.266;2023-08-30T01:55:50;7.33;;;3.30;;
77531;SDS011;70100;44.486;0.266;2023-08-30T02:01:22;7.30;;;3.23;;
77531;SDS011;70100;44.486;0.266;2023-08-30T02:06:57;7.60;;;3.57;;
77531;SDS011;70100;44.486;0.266;2023-08-30T02:12:31;7.10;;;3.30;;
77531;SDS011;70100;44.486;0.266;2023-08-30T02:18:01;6.43;;;3.37;;
77531;SDS011;70100;44.486;0.266;2023-08-30T02:23:35;13.37;;;3.97;;
77531;SDS011;70100;44.486;0.266;2023-08-30T02:29:08;6.33;;;3.13;;
77531;SDS011;70100;44.486;0.266;2023-08-30T02:34:41;7.23;;;3.33;;
77531;SDS011;70100;44.486;0.266;2023-08-30T02:40:14;5.73;;;3.53;;
77531;SDS011;70100;44.486;0.266;2023-08-30T02:45:47;5.03;;;2.97;;
77531;SDS011;70100;44.486;0.266;2023-08-30T02:51:20;8.30;;;3.87;;
77531;SDS011;70100;44.486;0.266;2023-08-30T02:56:53;7.83;;;3.87;;
77531;SDS011;70100;44.486;0.266;2023-08-30T03:02:26;7.80;;;3.23;;
77531;SDS011;70100;44.486;0.266;2023-08-30T03:07:58;-1.00;;;-1.00;;
77531;SDS011;70100;44.486;0.266;2023-08-30T03:13:32;10.33;;;4.07;;
77531;SDS011;70100;44.486;0.266;2023-08-30T03:19:05;8.30;;;3.77;;
77531;SDS011;70100;44.486;0.266;2023-08-30T03:24:38;10.47;;;3.87;;
77531;SDS011;70100;44.486;0.266;2023-08-30T03:30:10;10.40;;;4.10;;
77531;SDS011;70100;44.486;0.266;2023-08-30T03:35:42;8.43;;;3.60;;
77531;SDS011;70100;44.486;0.266;2023-08-30T03:41:14;8.83;;;4.00;;
77531;SDS011;70100;44.486;0.266;2023-08-30T03:46:47;7.23;;;3.90;;
77531;SDS011;70100;44.486;0.266;2023-08-30T03:52:19;7.07;;;3.83;;
77531;SDS011;70100;44.486;0.266;2023-08-30T03:57:52;6.90;;;3.67;;
77531;SDS011;70100;44.486;0.266;2023-08-30T04:03:24;6.30;;;3.13;;
77531;SDS011;70100;44.486;0.266;2023-08-30T04:08:55;9.60;;;3.60;;
77531;SDS011;70100;44.486;0.266;2023-08-30T04:14:29;7.07;;;3.63;;
77531;SDS011;70100;44.486;0.266;2023-08-30T04:20:01;6.80;;;3.47;;
77531;SDS011;70100;44.486;0.266;2023-08-30T04:25:34;7.47;;;3.77;;
77531;SDS011;70100;44.486;0.266;2023-08-30T04:31:06;10.37;;;3.97;;
77531;SDS011;70100;44.486;0.266;2023-08-30T04:36:38;7.20;;;3.13;;
77531;SDS011;70100;44.486;0.266;2023-08-30T04:42:10;9.43;;;3.77;;
77531;SDS011;70100;44.486;0.266;2023-08-30T04:47:46;8.40;;;3.80;;
77531;SDS011;70100;44.486;0.266;2023-08-30T04:53:15;8.23;;;4.03;;
77531;SDS011;70100;44.486;0.266;2023-08-30T04:58:49;11.30;;;3.87;;
77531;SDS011;70100;44.486;0.266;2023-08-30T05:04:21;11.93;;;5.17;;
77531;SDS011;70100;44.486;0.266;2023-08-30T05:09:56;9.23;;;4.23;;
77531;SDS011;70100;44.486;0.266;2023-08-30T05:15:28;8.83;;;3.87;;
77531;SDS011;70100;44.486;0.266;2023-08-30T05:21:04;7.73;;;3.77;;
77531;SDS011;70100;44.486;0.266;2023-08-30T05:26:34;7.53;;;4.10;;
77531;SDS011;70100;44.486;0.266;2023-08-30T05:32:06;8.53;;;4.27;;
77531;SDS011;70100;44.486;0.266;2023-08-30T05:37:40;7.57;;;3.87;;
77531;SDS011;70100;44.486;0.266;2023-08-30T05:43:12;-1.00;;;-1.00;;
77531;SDS011;70100;44.486;0.266;2023-08-30T05:48:45;7.23;;;4.40;;
77531;SDS011;70100;44.486;0.266;2023-08-30T05:54:19;9.00;;;4.27;;
77531;SDS011;70100;44.486;0.266;2023-08-30T05:59:52;9.03;;;4.30;;
77531;SDS011;70100;44.486;0.266;2023-08-30T06:05:26;7.37;;;4.00;;
77531;SDS011;70100;44.486;0.266;2023-08-30T06:10:56;11.97;;;4.43;;
77531;SDS011;70100;44.486;0.266;2023-08-30T06:16:29;6.30;;;3.37;;
77531;SDS011;70100;44.486;0.266;2023-08-30T06:22:02;6.80;;;3.77;;
77531;SDS011;70100;44.486;0.266;2023-08-30T06:27:40;9.10;;;3.97;;
77531;SDS011;70100;44.486;0.266;2023-08-30T06:33:09;8.83;;;4.20;;
77531;SDS011;70100;44.486;0.266;2023-08-30T06:38:42;9.70;;;3.60;;
77531;SDS011;70100;44.486;0.266;2023-08-30T06:44:14;12.67;;;4.27;;
77531;SDS011;70100;44.486;0.266;2023-08-30T06:49:47;8.67;;;3.67;;
77531;SDS011;70100;44.486;0.266;2023-08-30T06:55:19;10.50;;;4.83;;
77531;SDS011;70100;44.486;0.266;2023-08-30T07:00:52;8.37;;;3.67;;
77531;SDS011;70100;44.486;0.266;2023-08-30T07:06:25;6.27;;;3.77;;
77531;SDS011;70100;44.486;0.266;2023-08-30T07:11:57;6.03;;;3.50;;
77531;SDS011;70100;44.486;0.266;2023-08-30T07:17:30;5.67;;;2.93;;
77531;SDS011;70100;44.486;0.266;2023-08-30T07:23:03;7.97;;;3.70;;
77531;SDS011;70100;44.486;0.266;2023-08-30T07:28:36;5.00;;;3.70;;
77531;SDS011;70100;44.486;0.266;2023-08-30T07:34:10;6.23;;;3.73;;
77531;SDS011;70100;44.486;0.266;2023-08-30T07:39:43;6.77;;;3.43;;
77531;SDS011;70100;44.486;0.266;2023-08-30T07:45:15;-1.00;;;-1.00;;
77531;SDS011;70100;44.486;0.266;2023-08-30T07:50:48;6.37;;;3.53;;
77531;SDS011;70100;44.486;0.266;2023-08-30T07:56:20;7.13;;;3.80;;
77531;SDS011;70100;44.486;0.266;2023-08-30T08:01:53;8.83;;;4.60;;
77531;SDS011;70100;44.486;0.266;2023-08-30T08:07:25;7.03;;;3.73;;
77531;SDS011;70100;44.486;0.266;2023-08-30T08:12:59;6.07;;;4.30;;
77531;SDS011;70100;44.486;0.266;2023-08-30T08:18:31;8.27;;;3.17;;
77531;SDS011;70100;44.486;0.266;2023-08-30T08:24:04;8.00;;;3.87;;
77531;SDS011;70100;44.486;0.266;2023-08-30T08:29:38;8.37;;;4.73;;
77531;SDS011;70100;44.486;0.266;2023-08-30T08:35:12;8.40;;;3.80;;
77531;SDS011;70100;44.486;0.266;2023-08-30T08:40:45;7.43;;;2.90;;
77531;SDS011;70100;44.486;0.266;2023-08-30T08:46:18;5.63;;;2.97;;
77531;SDS011;70100;44.486;0.266;2023-08-30T08:51:50;7.00;;;3.33;;
77531;SDS011;70100;44.486;0.266;2023-08-30T08:57:23;5.93;;;3.40;;
77531;SDS011;70100;44.486;0.266;2023-08-30T09:02:56;3.83;;;2.37;;
77531;SDS011;70100;44.486;0.266;2023-08-30T09:08:29;6.50;;;3.10;;
77531;SDS011;70100;44.486;0.266;2023-08-30T09:14:02;5.87;;;2.80;;
77531;SDS011;70100;44.486;0.266;2023-08-30T09:19:35;3.50;;;2.07;;
77531;SDS011;70100;44.486;0.266;2023-08-30T09:25:08;4.97;;;3.40;;
77531;SDS011;70100;44.486;0.266;2023-08-30T09:30:40;4.80;;;2.30;;
77531;SDS011;70100;44.486;0.266;2023-08-30T09:36:13;3.27;;;2.50;;
77531;SDS011;70100;44.486;0.266;2023-08-30T09:41:47;5.00;;;2.33;;
77531;SDS011;70100;44.486;0.266;2023-08-30T09:47:20;3.30;;;1.93;;
77531;SDS011;70100;44.486;0.266;2023-08-30T09:52:53;4.73;;;2.40;;
77531;SDS011;70100;44.486;0.266;2023-08-30T09:58:28;2.93;;;1.83;;
77531;SDS011;70100;44.486;0.266;2023-08-30T10:03:59;8.37;;;2.63;;
77531;SDS011;70100;44.486;0.266;2023-08-30T10:09:32;3.30;;;2.23;;
77531;SDS011;70100;44.486;0.266;2023-08-30T10:15:06;5.60;;;2.00;;
77531;SDS011;70100;44.486;0.266;2023-08-30T10:20:38;4.43;;;2.43;;
77531;SDS011;70100;44.486;0.266;2023-08-30T10:26:11;4.10;;;2.40;;
77531;SDS011;70100;44.486;0.266;2023-08-30T10:31:43;3.97;;;2.33;;
77531;SDS011;70100;44.486;0.266;2023-08-30T10:37:16;2.50;;;1.63;;
77531;SDS011;70100;44.486;0.266;2023-08-30T10:48:20;4.97;;;2.80;;
77531;SDS011;70100;44.486;0.266;2023-08-30T10:53:56;3.93;;;2.50;;
77531;SDS011;70100;44.486;0.266;2023-08-30T10:59:26;2.60;;;2.07;;
77531;SDS011;70100;44.486;0.266;2023-08-30T11:04:59;1.93;;;1.33;;
77531;SDS011;70100;44.486;0.266;2023-08-30T11:10:31;2.70;;;1.43;;
77531;SDS011;70100;44.486;0.266;2023-08-30T11:16:04;2.43;;;2.03;;
77531;SDS011;70100;44.486;0.266;2023-08-30T11:21:37;4.10;;;2.13;;
77531;SDS011;70100;44.486;0.266;2023-08-30T11:27:10;2.90;;;2.00;;
77531;SDS011;70100;44.486;0.266;2023-08-30T11:32:43;3.53;;;1.63;;
77531;SDS011;70100;44.486;0.266;2023-08-30T11:38:14;1.73;;;1.17;;
77531;SDS011;70100;44.486;0.266;2023-08-30T11:43:48;2.90;;;1.50;;
77531;SDS011;70100;44.486;0.266;2023-08-30T11:49:20;2.97;;;1.50;;
77531;SDS011;70100;44.486;0.266;2023-08-30T11:54:51;3.27;;;2.00;;
77531;SDS011;70100;44.486;0.266;2023-08-30T12:00:23;2.40;;;1.50;;
77531;SDS011;70100;44.486;0.266;2023-08-30T12:05:57;1.93;;;1.13;;
77531;SDS011;70100;44.486;0.266;2023-08-30T12:11:32;1.60;;;1.50;;
77531;SDS011;70100;44.486;0.266;2023-08-30T12:17:04;2.27;;;1.00;;
77531;SDS011;70100;44.486;0.266;2023-08-30T12:22:36;1.97;;;1.33;;
77531;SDS011;70100;44.486;0.266;2023-08-30T12:28:07;1.43;;;0.90;;
77531;SDS011;70100;44.486;0.266;2023-08-30T12:33:41;1.73;;;1.20;;
77531;SDS011;70100;44.486;0.266;2023-08-30T12:39:13;1.90;;;0.97;;
77531;SDS011;70100;44.486;0.266;2023-08-30T12:44:45;2.10;;;1.30;;
77531;SDS011;70100;44.486;0.266;2023-08-30T12:50:18;1.30;;;1.17;;
77531;SDS011;70100;44.486;0.266;2023-08-30T12:55:50;1.63;;;1.00;;
77531;SDS011;70100;44.486;0.266;2023-08-30T13:01:23;1.30;;;0.97;;
77531;SDS011;70100;44.486;0.266;2023-08-30T13:06:55;2.00;;;1.77;;
77531;SDS011;70100;44.486;0.266;2023-08-30T13:12:28;1.20;;;0.80;;
77531;SDS011;70100;44.486;0.266;2023-08-30T13:23:33;1.40;;;0.83;;
77531;SDS011;70100;44.486;0.266;2023-08-30T13:29:05;2.40;;;0.97;;
77531;SDS011;70100;44.486;0.266;2023-08-30T13:34:39;1.60;;;1.17;;
77531;SDS011;70100;44.486;0.266;2023-08-30T13:40:12;1.50;;;0.87;;
77531;SDS011;70100;44.486;0.266;2023-08-30T13:45:47;1.80;;;1.23;;
77531;SDS011;70100;44.486;0.266;2023-08-30T13:51:22;0.87;;;0.87;;
77531;SDS011;70100;44.486;0.266;2023-08-30T13:56:49;1.80;;;0.63;;
77531;SDS011;70100;44.486;0.266;2023-08-30T14:02:22;1.37;;;1.27;;
77531;SDS011;70100;44.486;0.266;2023-08-30T14:07:55;1.37;;;1.27;;
77531;SDS011;70100;44.486;0.266;2023-08-30T14:13:28;1.70;;;1.13;;
77531;SDS011;70100;44.486;0.266;2023-08-30T14:19:00;2.00;;;0.70;;
77531;SDS011;70100;44.486;0.266;2023-08-30T14:24:33;1.07;;;0.93;;
77531;SDS011;70100;44.486;0.266;2023-08-30T14:30:05;1.77;;;1.20;;
77531;SDS011;70100;44.486;0.266;2023-08-30T14:35:41;1.40;;;1.07;;
77531;SDS011;70100;44.486;0.266;2023-08-30T14:41:12;1.30;;;1.20;;
77531;SDS011;70100;44.486;0.266;2023-08-30T14:46:44;2.27;;;1.10;;
77531;SDS011;70100;44.486;0.266;2023-08-30T14:52:16;3.87;;;1.10;;
77531;SDS011;70100;44.486;0.266;2023-08-30T14:57:50;3.43;;;1.70;;
77531;SDS011;70100;44.486;0.266;2023-08-30T15:03:22;2.23;;;1.07;;
77531;SDS011;70100;44.486;0.266;2023-08-30T15:08:55;1.20;;;1.13;;
77531;SDS011;70100;44.486;0.266;2023-08-30T15:14:28;2.90;;;1.03;;
77531;SDS011;70100;44.486;0.266;2023-08-30T15:20:01;1.70;;;1.00;;
77531;SDS011;70100;44.486;0.266;2023-08-30T15:25:35;2.07;;;1.10;;
77531;SDS011;70100;44.486;0.266;2023-08-30T15:31:08;2.00;;;1.00;;
77531;SDS011;70100;44.486;0.266;2023-08-30T15:36:41;2.00;;;1.50;;
77531;SDS011;70100;44.486;0.266;2023-08-30T15:42:14;1.93;;;1.10;;
77531;SDS011;70100;44.486;0.266;2023-08-30T15:47:46;3.93;;;1.30;;
77531;SDS011;70100;44.486;0.266;2023-08-30T15:53:19;4.23;;;1.40;;
77531;SDS011;70100;44.486;0.266;2023-08-30T15:58:52;2.93;;;1.70;;
77531;SDS011;70100;44.486;0.266;2023-08-30T16:04:24;5.20;;;1.63;;
77531;SDS011;70100;44.486;0.266;2023-08-30T16:09:56;1.13;;;0.83;;
77531;SDS011;70100;44.486;0.266;2023-08-30T16:21:00;1.30;;;1.17;;
77531;SDS011;70100;44.486;0.266;2023-08-30T16:32:06;1.27;;;1.17;;
77531;SDS011;70100;44.486;0.266;2023-08-30T16:37:39;1.43;;;1.00;;
77531;SDS011;70100;44.486;0.266;2023-08-30T16:43:11;1.03;;;0.73;;
77531;SDS011;70100;44.486;0.266;2023-08-30T16:48:44;1.23;;;1.10;;
77531;SDS011;70100;44.486;0.266;2023-08-30T16:54:16;1.23;;;0.43;;
77531;SDS011;70100;44.486;0.266;2023-08-30T16:59:48;0.70;;;0.60;;
77531;SDS011;70100;44.486;0.266;2023-08-30T17:05:22;0.50;;;0.50;;
77531;SDS011;70100;44.486;0.266;2023-08-30T17:10:53;2.67;;;0.67;;
77531;SDS011;70100;44.486;0.266;2023-08-30T17:16:27;2.50;;;1.10;;
77531;SDS011;70100;44.486;0.266;2023-08-30T17:21:58;1.60;;;0.70;;
77531;SDS011;70100;44.486;0.266;2023-08-30T17:27:30;1.57;;;0.70;;
77531;SDS011;70100;44.486;0.266;2023-08-30T17:33:03;1.47;;;0.70;;
77531;SDS011;70100;44.486;0.266;2023-08-30T17:38:36;2.50;;;1.27;;
77531;SDS011;70100;44.486;0.266;2023-08-30T17:44:08;1.23;;;1.10;;
77531;SDS011;70100;44.486;0.266;2023-08-30T17:49:40;1.80;;;1.43;;
77531;SDS011;70100;44.486;0.266;2023-08-30T17:55:15;2.43;;;0.90;;
77531;SDS011;70100;44.486;0.266;2023-08-30T18:00:47;0.80;;;0.70;;
77531;SDS011;70100;44.486;0.266;2023-08-30T18:06:18;1.90;;;0.63;;
77531;SDS011;70100;44.486;0.266;2023-08-30T18:11:50;4.57;;;1.40;;
77531;SDS011;70100;44.486;0.266;2023-08-30T18:17:26;1.30;;;0.80;;
77531;SDS011;70100;44.486;0.266;2023-08-30T18:22:54;2.73;;;1.47;;
77531;SDS011;70100;44.486;0.266;2023-08-30T18:28:27;2.20;;;1.07;;
77531;SDS011;70100;44.486;0.266;2023-08-30T18:34:00;3.20;;;1.80;;
77531;SDS011;70100;44.486;0.266;2023-08-30T18:39:33;2.87;;;1.73;;
77531;SDS011;70100;44.486;0.266;2023-08-30T18:45:07;3.50;;;1.17;;
77531;SDS011;70100;44.486;0.266;2023-08-30T18:50:39;1.80;;;0.83;;
77531;SDS011;70100;44.486;0.266;2023-08-30T18:56:12;4.60;;;1.07;;
77531;SDS011;70100;44.486;0.266;2023-08-30T19:01:44;2.30;;;0.87;;
77531;SDS011;70100;44.486;0.266;2023-08-30T19:07:17;1.97;;;1.30;;
77531;SDS011;70100;44.486;0.266;2023-08-30T19:12:49;-1.00;;;-1.00;;
77531;SDS011;70100;44.486;0.266;2023-08-30T19:18:24;3.67;;;1.23;;
77531;SDS011;70100;44.486;0.266;2023-08-30T19:23:56;3.50;;;1.30;;
77531;SDS011;70100;44.486;0.266;2023-08-30T19:29:29;2.03;;;1.10;;
77531;SDS011;70100;44.486;0.266;2023-08-30T19:35:01;1.20;;;0.90;;
77531;SDS011;70100;44.486;0.266;2023-08-30T19:46:08;5.23;;;1.17;;
77531;SDS011;70100;44.486;0.266;2023-08-30T19:51:40;4.83;;;1.40;;
77531;SDS011;70100;44.486;0.266;2023-08-30T19:57:13;5.00;;;1.50;;
77531;SDS011;70100;44.486;0.266;2023-08-30T20:02:46;3.53;;;1.50;;
77531;SDS011;70100;44.486;0.266;2023-08-30T20:08:18;-1.00;;;-1.00;;
77531;SDS011;70100;44.486;0.266;2023-08-30T20:13:51;1.80;;;1.53;;
77531;SDS011;70100;44.486;0.266;2023-08-30T20:19:24;-1.00;;;-1.00;;
77531;SDS011;70100;44.486;0.266;2023-08-30T20:24:56;7.57;;;2.10;;
77531;SDS011;70100;44.486;0.266;2023-08-30T20:30:29;2.57;;;1.73;;
77531;SDS011;70100;44.486;0.266;2023-08-30T20:36:03;3.07;;;1.73;;
77531;SDS011;70100;44.486;0.266;2023-08-30T20:41:36;6.57;;;1.67;;
77531;SDS011;70100;44.486;0.266;2023-08-30T20:47:08;4.40;;;1.90;;
77531;SDS011;70100;44.486;0.266;2023-08-30T20:52:40;3.17;;;1.50;;
77531;SDS011;70100;44.486;0.266;2023-08-30T20:58:13;2.73;;;1.90;;
77531;SDS011;70100;44.486;0.266;2023-08-30T21:03:46;4.63;;;2.00;;
77531;SDS011;70100;44.486;0.266;2023-08-30T21:09:18;5.23;;;2.47;;
77531;SDS011;70100;44.486;0.266;2023-08-30T21:14:51;6.27;;;1.60;;
77531;SDS011;70100;44.486;0.266;2023-08-30T21:20:23;-1.00;;;-1.00;;
77531;SDS011;70100;44.486;0.266;2023-08-30T21:25:56;6.00;;;1.87;;
77531;SDS011;70100;44.486;0.266;2023-08-30T21:31:29;4.70;;;2.30;;
77531;SDS011;70100;44.486;0.266;2023-08-30T21:37:02;5.47;;;2.30;;
77531;SDS011;70100;44.486;0.266;2023-08-30T21:42:36;10.03;;;1.90;;
77531;SDS011;70100;44.486;0.266;2023-08-30T21:48:07;6.43;;;1.90;;
77531;SDS011;70100;44.486;0.266;2023-08-30T21:53:40;3.03;;;2.20;;
77531;SDS011;70100;44.486;0.266;2023-08-30T21:59:12;5.53;;;2.10;;
77531;SDS011;70100;44.486;0.266;2023-08-30T22:04:44;3.70;;;1.90;;
77531;SDS011;70100;44.486;0.266;2023-08-30T22:10:18;9.30;;;2.00;;
77531;SDS011;70100;44.486;0.266;2023-08-30T22:15:51;4.90;;;2.50;;
77531;SDS011;70100;44.486;0.266;2023-08-30T22:21:24;3.77;;;2.17;;
77531;SDS011;70100;44.486;0.266;2023-08-30T22:26:56;2.70;;;2.13;;
77531;SDS011;70100;44.486;0.266;2023-08-30T22:32:30;4.53;;;2.07;;
77531;SDS011;70100;44.486;0.266;2023-08-30T22:38:01;7.77;;;2.50;;
77531;SDS011;70100;44.486;0.266;2023-08-30T22:43:34;6.83;;;2.63;;
77531;SDS011;70100;44.486;0.266;2023-08-30T22:49:07;3.53;;;1.70;;
77531;SDS011;70100;44.486;0.266;2023-08-30T22:54:40;4.53;;;2.43;;
77531;SDS011;70100;44.486;0.266;2023-08-30T23:00:13;6.00;;;1.90;;
77531;SDS011;70100;44.486;0.266;2023-08-30T23:05:45;5.83;;;2.13;;
77531;SDS011;70100;44.486;0.266;2023-08-30T23:11:18;9.73;;;2.57;;
77531;SDS011;70100;44.486;0.266;2023-08-30T23:16:52;5.67;;;2.00;;
77531;SDS011;70100;44.486;0.266;2023-08-30T23:22:23;3.37;;;2.00;;
77531;SDS011;70100;44.486;0.266;2023-08-30T23:27:57;6.63;;;2.47;;
77531;SDS011;70100;44.486;0.266;2023-08-30T23:33:29;6.53;;;2.70;;
77531;SDS011;70100;44.486;0.266;2023-08-30T23:39:01;4.00;;;2.50;;
77531;SDS011;70100;44.486;0.266;2023-08-30T23:44:34;-1.00;;;-1.00;;
77531;SDS011;70100;44.486;0.266;2023-08-30T23:50:06;2.97;;;1.70;;
77531;SDS011;70100;44.486;0.266;2023-08-30T23:55:38;-1.00;;;-1.00;;
